Time;durP1;ratioP1;P1;durP2;ratioP2;P2;SDS_P1;SDS_P2;PMS_P1;PMS_P2;Temp;Humidity;BMP_temperature;BMP_pressure;BME280_temperature;BME280_humidity;BME280_pressure;Samples;Min_cycle;Max_cycle;Signal;HPM_P1;HPM_P2
2021/08/25 00:01:31;;;;;;;20.92;17.30;;;14.20;99.90;;;;;;5095377;28;20039;-65
2021/08/25 00:03:57;;;;;;;22.38;18.42;;;14.20;99.90;;;;;;5099599;28;20442;-66
2021/08/25 00:06:23;;;;;;;18.95;16.85;;;14.20;99.90;;;;;;5095178;28;20032;-65
2021/08/25 00:08:48;;;;;;;19.27;17.25;;;14.10;99.90;;;;;;5095483;28;20051;-65
2021/08/25 00:11:14;;;;;;;18.33;16.35;;;14.10;99.90;;;;;;5125987;27;20151;-65
2021/08/25 00:13:40;;;;;;;18.73;16.73;;;14.10;99.90;;;;;;5094256;27;20397;-66
2021/08/25 00:16:06;;;;;;;22.83;20.25;;;14.10;99.90;;;;;;5125776;27;20047;-65
2021/08/25 00:18:31;;;;;;;13.25;12.05;;;14.10;99.90;;;;;;5094947;28;20043;-65
2021/08/25 00:20:58;;;;;;;14.55;12.43;;;14.00;99.90;;;;;;5097517;28;20027;-65
2021/08/25 00:23:24;;;;;;;19.10;17.08;;;13.90;99.90;;;;;;5093307;28;20035;-65
2021/08/25 00:25:53;;;;;;;16.10;14.50;;;13.80;99.90;;;;;;5094302;28;20112;-65
2021/08/25 00:28:19;;;;;;;10.05;8.45;;;13.70;99.90;;;;;;5095832;28;20031;-65
2021/08/25 00:30:45;;;;;;;17.65;11.70;;;13.70;99.90;;;;;;5127256;27;20053;-66
2021/08/25 00:33:10;;;;;;;16.92;9.48;;;13.70;99.90;;;;;;5096968;28;20072;-66
2021/08/25 00:35:36;;;;;;;14.57;10.80;;;13.70;99.90;;;;;;5094986;28;20079;-66
2021/08/25 00:38:02;;;;;;;12.15;10.82;;;13.70;99.90;;;;;;5094531;28;20389;-66
2021/08/25 00:40:27;;;;;;;17.67;14.80;;;13.70;99.90;;;;;;5097007;28;20046;-66
2021/08/25 00:42:53;;;;;;;22.08;17.52;;;13.60;99.90;;;;;;5082797;28;20028;-66
2021/08/25 00:45:18;;;;;;;23.08;20.08;;;13.60;99.90;;;;;;5098272;28;20040;-65
2021/08/25 00:47:44;;;;;;;20.55;18.33;;;13.70;99.90;;;;;;5096831;28;20036;-65
2021/08/25 00:50:11;;;;;;;21.63;19.33;;;13.60;99.90;;;;;;5093789;28;20036;-65
2021/08/25 00:52:39;;;;;;;23.33;20.85;;;13.60;99.90;;;;;;5095970;28;20117;-65
2021/08/25 00:55:06;;;;;;;21.23;19.13;;;13.60;99.90;;;;;;5127991;27;20047;-65
2021/08/25 00:57:35;;;;;;;29.45;21.90;;;13.50;99.90;;;;;;5096912;28;20136;-65
2021/08/25 01:00:01;;;;;;;24.63;20.90;;;13.50;99.90;;;;;;5093885;28;20064;-65
2021/08/25 01:02:31;;;;;;;24.92;21.70;;;13.50;99.90;;;;;;5096595;28;20146;-65
2021/08/25 01:04:58;;;;;;;23.50;20.95;;;13.50;99.90;;;;;;5093266;28;20077;-65
2021/08/25 01:07:27;;;;;;;23.63;19.50;;;13.40;99.90;;;;;;5096089;28;20048;-65
2021/08/25 01:09:55;;;;;;;21.00;18.35;;;13.50;99.90;;;;;;5101526;27;20052;-66
2021/08/25 01:12:21;;;;;;;26.45;21.73;;;13.50;99.90;;;;;;5113093;27;20043;-65
2021/08/25 01:14:47;;;;;;;8.00;7.30;;;13.40;99.90;;;;;;5097746;28;20036;-65
2021/08/25 01:17:21;;;;;;;9.55;8.75;;;13.40;99.90;;;;;;5099725;27;20122;-65
2021/08/25 01:20:00;;;;;;;7.15;6.57;;;13.20;99.90;;;;;;5097127;27;20043;-65
2021/08/25 01:22:26;;;;;;;8.68;7.47;;;13.10;99.90;;;;;;5097028;28;20123;-66
2021/08/25 01:24:56;;;;;;;6.90;6.30;;;12.90;99.90;;;;;;5097172;28;20043;-65
2021/08/25 01:27:24;;;;;;;7.10;6.35;;;12.80;99.90;;;;;;5094906;28;20048;-66
2021/08/25 01:29:51;;;;;;;7.40;6.75;;;12.70;99.90;;;;;;5096673;27;20409;-65
2021/08/25 01:32:17;;;;;;;8.50;7.63;;;12.60;99.90;;;;;;5112029;27;20051;-65
2021/08/25 01:34:53;;;;;;;10.35;9.30;;;12.60;99.90;;;;;;5099178;28;20039;-65
2021/08/25 01:37:20;;;;;;;11.98;10.77;;;12.60;99.90;;;;;;5099558;27;20039;-65
2021/08/25 01:39:47;;;;;;;20.35;15.88;;;12.70;99.90;;;;;;5100600;28;20063;-66
2021/08/25 01:42:13;;;;;;;17.50;15.65;;;12.70;99.90;;;;;;5100896;28;20123;-65
2021/08/25 01:44:39;;;;;;;18.58;16.67;;;12.70;99.90;;;;;;5100348;28;20039;-65
2021/08/25 01:47:05;;;;;;;21.42;17.70;;;12.80;99.90;;;;;;5129318;27;20048;-65
2021/08/25 01:49:30;;;;;;;21.48;17.00;;;12.90;99.90;;;;;;5098041;28;20032;-65
2021/08/25 01:51:58;;;;;;;19.30;17.27;;;12.90;99.90;;;;;;5097499;28;20390;-65
2021/08/25 01:54:24;;;;;;;20.88;17.58;;;12.90;99.90;;;;;;5099155;27;20054;-66
2021/08/25 01:56:50;;;;;;;24.15;21.58;;;12.90;99.90;;;;;;5100693;27;20055;-65
2021/08/25 01:59:16;;;;;;;21.25;18.90;;;12.90;99.90;;;;;;5128001;27;20111;-65
2021/08/25 02:01:42;;;;;;;23.42;20.42;;;12.90;99.90;;;;;;5128595;27;20382;-65
2021/08/25 02:04:07;;;;;;;22.13;18.15;;;12.90;99.90;;;;;;5097540;28;20046;-65
2021/08/25 02:06:33;;;;;;;22.83;20.35;;;13.00;99.90;;;;;;5101447;28;20046;-65
2021/08/25 02:08:59;;;;;;;22.15;18.50;;;13.00;99.90;;;;;;5100385;28;20039;-66
2021/08/25 02:11:24;;;;;;;23.02;19.55;;;13.00;99.90;;;;;;5096475;28;20035;-65
2021/08/25 02:13:51;;;;;;;19.13;16.63;;;13.00;99.90;;;;;;5097886;28;20092;-65
2021/08/25 02:16:17;;;;;;;24.42;20.92;;;13.00;99.90;;;;;;5097420;27;20039;-65
2021/08/25 02:18:42;;;;;;;21.45;18.80;;;12.90;99.90;;;;;;5098080;28;20060;-66
2021/08/25 02:21:08;;;;;;;22.88;19.83;;;12.90;99.90;;;;;;5098175;27;20444;-65
2021/08/25 02:23:33;;;;;;;23.33;19.83;;;12.90;99.90;;;;;;5096452;28;20036;-66
2021/08/25 02:25:59;;;;;;;18.73;16.98;;;12.80;99.90;;;;;;5104480;28;20042;-65
2021/08/25 02:28:25;;;;;;;18.63;16.73;;;12.90;99.90;;;;;;5103119;28;20040;-66
2021/08/25 02:30:50;;;;;;;19.13;17.02;;;12.90;99.90;;;;;;5102565;27;20067;-65
2021/08/25 02:33:16;;;;;;;19.90;17.40;;;12.90;99.90;;;;;;5102147;28;20032;-65
2021/08/25 02:35:41;;;;;;;21.95;19.70;;;12.90;99.90;;;;;;5105798;28;20496;-66
2021/08/25 02:38:07;;;;;;;19.35;17.38;;;12.90;99.90;;;;;;5133357;27;20044;-66
2021/08/25 02:40:32;;;;;;;13.60;12.40;;;12.90;99.90;;;;;;5105868;28;20075;-65
2021/08/25 02:42:58;;;;;;;17.77;16.08;;;12.80;99.90;;;;;;5104863;28;20823;-66
2021/08/25 02:45:24;;;;;;;13.88;12.48;;;12.70;99.90;;;;;;5101993;27;20477;-65
2021/08/25 02:47:49;;;;;;;16.10;14.52;;;12.60;99.90;;;;;;5105329;28;20126;-66
2021/08/25 02:50:15;;;;;;;11.80;10.70;;;12.60;99.90;;;;;;5131062;27;20040;-66
2021/08/25 02:52:41;;;;;;;12.77;11.27;;;12.60;99.90;;;;;;5102779;28;20040;-65
2021/08/25 02:55:07;;;;;;;9.63;7.10;;;12.50;99.90;;;;;;5104933;27;20046;-66
2021/08/25 02:57:33;;;;;;;56.88;12.73;;;12.60;99.90;;;;;;5103787;28;20055;-66
2021/08/25 02:59:58;;;;;;;299.73;26.50;;;12.50;99.90;;;;;;5105687;28;20473;-66
2021/08/25 03:02:24;;;;;;;529.58;30.63;;;12.40;99.90;;;;;;5105259;27;20043;-66
2021/08/25 03:04:49;;;;;;;338.48;25.67;;;12.20;99.90;;;;;;5101142;28;20036;-66
2021/08/25 03:07:15;;;;;;;51.13;17.08;;;12.20;99.90;;;;;;5102725;28;20111;-66
2021/08/25 03:09:41;;;;;;;14.80;12.88;;;12.20;99.90;;;;;;5116738;27;20035;-65
2021/08/25 03:12:07;;;;;;;107.15;20.88;;;12.20;99.90;;;;;;5131262;27;20039;-66
2021/08/25 03:14:32;;;;;;;94.43;21.60;;;12.30;99.90;;;;;;5105322;28;20085;-66
2021/08/25 03:16:58;;;;;;;36.70;19.55;;;12.30;99.90;;;;;;5102939;28;20058;-66
2021/08/25 03:19:24;;;;;;;49.08;20.42;;;12.40;99.90;;;;;;5101971;28;20036;-66
2021/08/25 03:21:49;;;;;;;36.90;19.35;;;12.40;99.90;;;;;;5101111;28;20765;-65
2021/08/25 03:24:15;;;;;;;22.00;17.08;;;12.50;99.90;;;;;;5106885;28;20111;-66
2021/08/25 03:26:40;;;;;;;42.45;16.63;;;12.50;99.90;;;;;;5103779;28;20031;-66
2021/08/25 03:29:06;;;;;;;33.03;16.48;;;12.60;99.90;;;;;;5103114;27;20145;-66
2021/08/25 03:31:32;;;;;;;26.52;13.23;;;12.70;99.90;;;;;;5100716;28;20082;-66
2021/08/25 03:33:57;;;;;;;76.95;18.48;;;12.70;99.90;;;;;;5104371;28;20032;-66
2021/08/25 03:36:24;;;;;;;152.88;22.92;;;12.80;99.90;;;;;;5103564;28;20040;-66
2021/08/25 03:38:50;;;;;;;91.32;17.20;;;12.80;99.90;;;;;;5100934;28;20156;-66
2021/08/25 03:41:16;;;;;;;66.07;17.52;;;12.80;99.90;;;;;;5100830;28;20111;-66
2021/08/25 03:43:41;;;;;;;29.58;12.48;;;12.80;99.90;;;;;;5102614;28;20126;-66
2021/08/25 03:46:07;;;;;;;20.77;10.98;;;12.90;99.90;;;;;;5102297;28;20051;-66
2021/08/25 03:48:33;;;;;;;40.22;11.55;;;12.90;99.90;;;;;;5106142;27;20035;-66
2021/08/25 03:50:59;;;;;;;47.67;12.88;;;12.90;99.90;;;;;;5127194;27;20492;-66
2021/08/25 03:53:25;;;;;;;160.23;17.23;;;13.00;99.90;;;;;;5104216;28;20122;-66
2021/08/25 03:55:51;;;;;;;29.80;12.18;;;13.00;99.90;;;;;;5102258;28;20122;-66
2021/08/25 03:58:16;;;;;;;12.65;10.05;;;13.00;99.90;;;;;;5104884;28;20064;-66
2021/08/25 04:00:42;;;;;;;34.88;12.75;;;13.00;99.90;;;;;;5103494;28;20480;-66
2021/08/25 04:03:07;;;;;;;31.35;9.95;;;13.00;99.90;;;;;;5099912;28;20092;-66
2021/08/25 04:05:33;;;;;;;39.50;11.60;;;13.00;99.90;;;;;;5102458;28;20040;-66
2021/08/25 04:07:58;;;;;;;26.55;10.25;;;13.00;99.90;;;;;;5106039;27;20035;-66
2021/08/25 04:10:24;;;;;;;58.45;11.10;;;13.00;99.90;;;;;;5108046;28;20477;-66
2021/08/25 04:12:49;;;;;;;44.67;9.98;;;13.00;99.90;;;;;;5100711;28;20039;-66
2021/08/25 04:15:15;;;;;;;95.85;12.88;;;13.10;99.90;;;;;;5103250;28;20157;-66
2021/08/25 04:17:41;;;;;;;29.98;9.75;;;13.10;99.90;;;;;;5130362;27;20048;-66
2021/08/25 04:20:07;;;;;;;19.25;8.35;;;13.10;99.90;;;;;;5101958;28;20063;-66
2021/08/25 04:22:32;;;;;;;33.53;9.80;;;13.10;99.90;;;;;;5105473;28;20036;-66
2021/08/25 04:24:58;;;;;;;8.32;7.55;;;13.20;99.90;;;;;;5102776;28;20034;-66
2021/08/25 04:27:24;;;;;;;22.98;7.68;;;13.20;99.90;;;;;;5103333;28;20035;-66
2021/08/25 04:29:50;;;;;;;19.80;7.55;;;13.20;99.90;;;;;;5102256;28;20047;-66
2021/08/25 04:32:16;;;;;;;63.92;9.05;;;13.20;99.90;;;;;;5104123;28;20125;-66
2021/08/25 04:34:42;;;;;;;12.93;7.32;;;13.20;99.90;;;;;;5102362;28;20125;-66
2021/08/25 04:37:08;;;;;;;31.92;7.57;;;13.20;99.90;;;;;;5101834;28;20047;-66
2021/08/25 04:39:33;;;;;;;42.25;8.90;;;13.20;99.90;;;;;;5100580;28;20419;-66
2021/08/25 04:41:59;;;;;;;12.10;6.97;;;13.20;99.90;;;;;;5102971;28;20486;-66
2021/08/25 04:44:25;;;;;;;28.58;8.07;;;13.10;99.90;;;;;;5107555;27;20047;-66
2021/08/25 04:46:50;;;;;;;7.60;6.90;;;13.20;99.90;;;;;;5093228;28;20054;-66
2021/08/25 04:49:16;;;;;;;19.50;7.22;;;13.20;99.90;;;;;;5102180;28;20484;-66
2021/08/25 04:51:41;;;;;;;6.07;5.35;;;13.20;99.90;;;;;;5109685;28;20838;-66
2021/08/25 04:54:07;;;;;;;11.63;6.32;;;13.10;99.90;;;;;;5105790;28;20032;-66
2021/08/25 04:56:32;;;;;;;14.60;6.95;;;13.10;99.90;;;;;;5107526;28;20084;-66
2021/08/25 04:58:58;;;;;;;10.25;6.38;;;13.20;99.90;;;;;;5106504;28;20085;-66
2021/08/25 05:01:23;;;;;;;20.20;7.60;;;13.10;99.90;;;;;;5105739;27;20039;-66
2021/08/25 05:03:49;;;;;;;18.02;6.55;;;13.10;99.90;;;;;;5111312;27;20046;-66
2021/08/25 05:06:15;;;;;;;43.60;9.70;;;13.10;99.90;;;;;;5105983;28;20036;-66
2021/08/25 05:08:40;;;;;;;31.27;7.57;;;13.10;99.90;;;;;;5109678;28;20055;-66
2021/08/25 05:11:09;;;;;;;52.33;8.25;;;13.00;99.90;;;;;;5103538;27;20375;-66
2021/08/25 05:13:37;;;;;;;7.32;6.20;;;13.00;99.90;;;;;;5098472;28;20043;-66
2021/08/25 05:16:03;;;;;;;17.60;6.18;;;13.00;99.90;;;;;;5098184;28;20184;-66
2021/08/25 05:18:28;;;;;;;16.52;6.72;;;13.10;99.90;;;;;;5098309;27;20545;-66
2021/08/25 05:20:54;;;;;;;23.45;6.30;;;13.10;99.90;;;;;;5098247;27;20048;-66
2021/08/25 05:23:20;;;;;;;29.48;7.68;;;13.10;99.90;;;;;;5101266;28;20048;-66
2021/08/25 05:25:45;;;;;;;45.03;6.57;;;13.20;99.90;;;;;;5106985;28;20416;-66
2021/08/25 05:28:11;;;;;;;40.50;6.30;;;13.10;99.90;;;;;;5102197;28;20047;-66
2021/08/25 05:30:36;;;;;;;78.60;8.07;;;13.10;99.90;;;;;;5099997;28;20036;-66
2021/08/25 05:33:02;;;;;;;27.65;5.88;;;13.10;99.90;;;;;;5102311;28;20039;-66
2021/08/25 05:35:27;;;;;;;32.13;5.82;;;13.10;99.90;;;;;;5100040;28;20036;-66
2021/08/25 05:37:53;;;;;;;32.65;5.50;;;13.20;99.90;;;;;;5101058;27;20050;-66
2021/08/25 05:40:19;;;;;;;45.65;8.00;;;13.20;99.90;;;;;;5106875;27;20127;-66
2021/08/25 05:42:45;;;;;;;44.85;6.40;;;13.30;99.90;;;;;;5102849;27;20114;-66
2021/08/25 05:45:12;;;;;;;26.90;5.07;;;13.40;99.90;;;;;;5099941;28;20458;-66
2021/08/25 05:47:38;;;;;;;20.92;6.05;;;13.50;99.90;;;;;;5098961;28;20113;-66
2021/08/25 05:50:05;;;;;;;4.20;3.78;;;13.70;99.90;;;;;;5098254;27;20069;-66
2021/08/25 05:52:31;;;;;;;20.48;5.05;;;13.90;99.90;;;;;;5098231;28;20370;-66
2021/08/25 05:54:57;;;;;;;3.45;3.20;;;14.10;99.90;;;;;;5097017;28;20042;-66
2021/08/25 05:57:22;;;;;;;4.72;3.35;;;14.50;99.90;;;;;;5098137;28;20096;-66
2021/08/25 05:59:48;;;;;;;2.95;2.38;;;14.60;99.90;;;;;;5099501;27;20028;-65
2021/08/25 06:02:14;;;;;;;3.97;2.95;;;14.80;99.90;;;;;;5097176;27;20068;-66
2021/08/25 06:04:39;;;;;;;12.07;3.10;;;14.90;99.90;;;;;;5127974;27;20035;-66
2021/08/25 06:07:09;;;;;;;15.02;2.10;;;15.20;99.90;;;;;;5095618;28;20036;-66
2021/08/25 06:09:35;;;;;;;2.83;1.48;;;15.50;99.90;;;;;;5096203;28;20030;-66
2021/08/25 06:12:00;;;;;;;2.03;1.13;;;16.20;99.90;;;;;;5096183;27;20470;-66
2021/08/25 06:14:26;;;;;;;1.58;0.98;;;17.30;99.90;;;;;;5109040;27;20032;-66
2021/08/25 06:16:52;;;;;;;1.88;0.98;;;18.60;99.90;;;;;;5099045;27;20495;-66
2021/08/25 06:19:17;;;;;;;2.05;1.00;;;19.70;99.90;;;;;;5096218;27;20043;-67
2021/08/25 06:21:44;;;;;;;2.05;1.05;;;20.50;99.90;;;;;;5099129;28;20095;-67
2021/08/25 06:24:10;;;;;;;1.58;0.75;;;21.40;99.90;;;;;;5096329;28;20465;-67
2021/08/25 06:26:35;;;;;;;1.88;0.95;;;22.40;99.90;;;;;;5092664;28;20054;-67
2021/08/25 06:29:01;;;;;;;1.40;0.90;;;23.50;99.90;;;;;;5098559;27;20036;-67
2021/08/25 06:31:27;;;;;;;1.25;1.10;;;24.20;99.90;;;;;;5124616;27;20047;-67
2021/08/25 06:33:52;;;;;;;4.22;1.10;;;24.90;99.90;;;;;;5098240;28;20076;-67
2021/08/25 06:36:18;;;;;;;2.28;0.77;;;25.60;99.90;;;;;;5127108;27;20051;-68
2021/08/25 06:38:44;;;;;;;2.03;0.82;;;26.20;98.30;;;;;;5095918;28;20028;-68
2021/08/25 06:41:10;;;;;;;1.77;1.10;;;26.40;96.30;;;;;;5126920;27;20024;-68
2021/08/25 06:43:36;;;;;;;1.88;1.10;;;26.80;95.10;;;;;;5095604;28;20024;-68
2021/08/25 06:46:02;;;;;;;1.83;1.30;;;27.50;94.40;;;;;;5125804;27;20505;-68
2021/08/25 06:48:27;;;;;;;2.70;1.35;;;27.60;92.10;;;;;;5096937;28;20040;-68
2021/08/25 06:50:53;;;;;;;4.13;0.95;;;28.20;90.60;;;;;;5094545;28;20093;-68
2021/08/25 06:53:20;;;;;;;3.20;1.60;;;28.60;89.90;;;;;;5097515;27;20066;-68
2021/08/25 06:55:45;;;;;;;3.75;1.52;;;28.00;87.90;;;;;;5094684;28;20044;-68
2021/08/25 06:58:11;;;;;;;2.95;1.60;;;27.00;89.40;;;;;;5095716;28;20035;-68
2021/08/25 07:00:36;;;;;;;2.28;1.35;;;26.20;93.90;;;;;;5096548;27;20038;-67
2021/08/25 07:03:02;;;;;;;3.03;0.95;;;25.80;97.10;;;;;;5114688;27;20486;-67
2021/08/25 07:05:28;;;;;;;2.40;1.15;;;25.20;97.90;;;;;;5093276;28;20062;-67
2021/08/25 07:07:55;;;;;;;2.83;1.80;;;24.60;99.80;;;;;;5099973;28;20054;-67
2021/08/25 07:10:21;;;;;;;3.20;1.77;;;24.10;99.90;;;;;;5098081;28;20044;-67
2021/08/25 07:12:47;;;;;;;4.63;1.52;;;23.70;99.90;;;;;;5096183;27;20123;-67
2021/08/25 07:15:17;;;;;;;2.35;1.38;;;23.40;99.90;;;;;;5096219;28;20123;-67
2021/08/25 07:17:44;;;;;;;7.25;1.98;;;23.20;99.90;;;;;;5095738;28;20055;-67
2021/08/25 07:20:11;;;;;;;6.18;2.22;;;23.20;99.90;;;;;;5095337;28;20030;-67
2021/08/25 07:22:37;;;;;;;3.65;1.70;;;23.10;99.90;;;;;;5093838;28;20115;-67
2021/08/25 07:25:04;;;;;;;2.88;1.42;;;23.10;99.90;;;;;;5094181;28;20032;-67
2021/08/25 07:27:29;;;;;;;4.30;1.70;;;23.00;99.90;;;;;;5095809;28;20073;-67
2021/08/25 07:29:55;;;;;;;5.15;1.58;;;22.80;99.90;;;;;;5095202;28;20051;-67
2021/08/25 07:32:20;;;;;;;2.45;1.10;;;22.70;99.90;;;;;;5096844;28;20036;-67
2021/08/25 07:34:46;;;;;;;2.45;1.60;;;22.60;99.90;;;;;;5096342;28;20298;-67
2021/08/25 07:37:11;;;;;;;2.42;1.55;;;22.40;99.90;;;;;;5095951;28;20044;-67
2021/08/25 07:39:37;;;;;;;3.50;1.88;;;22.30;99.90;;;;;;5096354;28;20039;-67
2021/08/25 07:42:03;;;;;;;4.35;1.70;;;22.20;99.90;;;;;;5094339;28;20036;-67
2021/08/25 07:44:29;;;;;;;3.75;1.85;;;22.20;99.90;;;;;;5094204;28;20564;-67
2021/08/25 07:46:55;;;;;;;5.55;1.70;;;22.10;99.90;;;;;;5096548;28;20085;-67
2021/08/25 07:49:21;;;;;;;4.03;1.90;;;22.20;99.90;;;;;;5092794;28;20127;-67
2021/08/25 07:51:48;;;;;;;4.25;1.45;;;22.10;99.90;;;;;;5095142;28;20051;-67
2021/08/25 07:54:14;;;;;;;3.80;2.05;;;22.00;99.90;;;;;;5093875;28;20048;-67
2021/08/25 07:56:40;;;;;;;4.93;1.83;;;21.90;99.90;;;;;;5094548;28;20047;-67
2021/08/25 07:59:05;;;;;;;4.60;1.95;;;22.00;99.90;;;;;;5092518;28;20055;-67
2021/08/25 08:01:31;;;;;;;5.47;1.88;;;22.00;99.90;;;;;;5099524;28;20144;-67
2021/08/25 08:03:57;;;;;;;4.30;1.95;;;22.10;99.90;;;;;;5093644;28;20034;-67
2021/08/25 08:06:22;;;;;;;5.10;2.33;;;22.20;99.90;;;;;;5093163;28;20534;-67
2021/08/25 08:08:48;;;;;;;2.97;2.03;;;22.30;99.90;;;;;;5095146;28;20071;-67
2021/08/25 08:11:14;;;;;;;8.55;1.90;;;22.30;99.90;;;;;;5094560;28;20482;-67
2021/08/25 08:13:40;;;;;;;2.50;2.08;;;22.40;99.90;;;;;;5091148;27;20046;-67
2021/08/25 08:16:06;;;;;;;11.82;2.38;;;22.40;99.90;;;;;;5095251;28;20081;-66
2021/08/25 08:18:35;;;;;;;7.68;2.00;;;22.40;99.90;;;;;;5094255;28;20043;-67
2021/08/25 08:21:01;;;;;;;12.75;1.95;;;22.40;99.90;;;;;;5095200;28;20116;-67
2021/08/25 08:23:27;;;;;;;5.18;2.25;;;22.40;99.90;;;;;;5096879;28;20485;-67
2021/08/25 08:25:52;;;;;;;6.32;1.58;;;22.60;99.90;;;;;;5099572;28;20074;-67
2021/08/25 08:28:18;;;;;;;11.23;1.77;;;22.70;99.90;;;;;;5099174;28;20069;-67
2021/08/25 08:30:44;;;;;;;4.63;1.52;;;22.80;99.90;;;;;;5102701;28;20032;-67
2021/08/25 08:33:10;;;;;;;10.07;1.90;;;22.70;99.90;;;;;;5099490;28;20038;-67
2021/08/25 08:35:36;;;;;;;6.22;1.77;;;22.70;99.90;;;;;;5101600;28;20043;-67
2021/08/25 08:38:07;;;;;;;3.67;1.30;;;22.80;99.90;;;;;;5101054;28;20048;-67
2021/08/25 08:40:34;;;;;;;4.95;1.45;;;23.00;99.90;;;;;;5095687;28;20492;-67
2021/08/25 08:43:08;;;;;;;6.15;1.90;;;22.90;99.90;;;;;;5099920;28;20044;-67
2021/08/25 08:45:41;;;;;;;20.38;2.00;;;23.00;99.90;;;;;;5103132;28;20031;-67
2021/08/25 08:48:08;;;;;;;10.73;1.75;;;23.00;99.90;;;;;;5126698;27;20051;-67
2021/08/25 08:50:39;;;;;;;4.50;1.48;;;22.90;99.90;;;;;;5101510;28;20038;-67
2021/08/25 08:53:07;;;;;;;8.10;1.38;;;22.80;99.90;;;;;;5100985;28;20050;-67
2021/08/25 08:55:32;;;;;;;9.38;1.67;;;22.60;99.90;;;;;;5098879;28;20055;-67
2021/08/25 08:57:58;;;;;;;23.05;2.13;;;22.40;99.90;;;;;;5101625;28;20408;-67
2021/08/25 09:00:24;;;;;;;10.00;1.63;;;22.30;99.90;;;;;;5103728;28;20032;-67
2021/08/25 09:02:50;;;;;;;14.93;2.38;;;22.30;99.90;;;;;;5100188;28;20600;-67
2021/08/25 09:05:23;;;;;;;14.32;1.65;;;22.30;99.90;;;;;;5101068;28;20050;-67
2021/08/25 09:07:54;;;;;;;21.20;1.65;;;22.20;99.90;;;;;;5102550;28;20047;-67
2021/08/25 09:10:22;;;;;;;3.95;1.42;;;21.90;99.90;;;;;;5102940;28;20088;-67
2021/08/25 09:12:49;;;;;;;2.40;1.10;;;21.80;99.90;;;;;;5098369;28;20047;-67
2021/08/25 09:15:35;;;;;;;3.47;1.23;;;21.80;99.90;;;;;;5099005;28;20046;-67
2021/08/25 09:18:06;;;;;;;3.97;1.35;;;21.90;99.90;;;;;;5098162;28;20032;-67
2021/08/25 09:20:38;;;;;;;7.35;1.08;;;22.00;99.90;;;;;;5100232;28;20043;-67
2021/08/25 09:23:20;;;;;;;5.05;1.75;;;21.90;99.90;;;;;;5100953;28;20074;-67
2021/08/25 09:25:48;;;;;;;2.33;1.00;;;21.70;99.90;;;;;;5100151;28;20062;-67
2021/08/25 09:28:17;;;;;;;5.10;0.75;;;21.70;99.90;;;;;;5102709;28;20667;-67
2021/08/25 09:30:57;;;;;;;4.13;1.38;;;21.70;99.90;;;;;;5106396;28;20036;-67
2021/08/25 09:33:37;;;;;;;2.58;0.85;;;21.80;99.90;;;;;;5103507;28;20035;-67
2021/08/25 09:36:08;;;;;;;2.50;0.80;;;21.70;99.90;;;;;;5103655;28;20069;-67
2021/08/25 09:38:35;;;;;;;3.70;0.73;;;21.60;99.90;;;;;;5103876;27;20097;-67
2021/08/25 09:41:10;;;;;;;2.10;0.68;;;21.80;99.90;;;;;;5102984;28;20046;-67
2021/08/25 09:44:15;;;;;;;8.82;2.35;;;21.80;99.90;;;;;;5101497;27;20036;-67
2021/08/25 09:46:52;;;;;;;8.55;0.70;;;21.60;99.90;;;;;;5100915;28;20048;-67
2021/08/25 09:49:17;;;;;;;1.23;0.70;;;21.50;99.90;;;;;;5097456;28;20040;-67
2021/08/25 09:51:43;;;;;;;4.13;1.10;;;21.60;99.90;;;;;;5102314;28;20062;-67
2021/08/25 09:54:15;;;;;;;2.10;0.90;;;21.90;99.90;;;;;;5105074;27;20373;-67
2021/08/25 09:56:43;;;;;;;6.10;0.73;;;22.40;99.90;;;;;;5101415;28;20065;-67
2021/08/25 09:59:13;;;;;;;2.33;0.57;;;22.80;99.90;;;;;;5104016;27;20423;-67
2021/08/25 10:01:41;;;;;;;4.22;0.60;;;22.90;99.90;;;;;;5104394;28;20050;-67
2021/08/25 10:04:11;;;;;;;10.35;0.90;;;23.20;99.90;;;;;;5103348;28;20068;-67
2021/08/25 10:06:38;;;;;;;0.70;0.60;;;23.00;99.90;;;;;;5104386;28;20031;-67
2021/08/25 10:09:06;;;;;;;1.80;0.38;;;22.80;99.90;;;;;;5102546;28;20051;-67
2021/08/25 10:11:34;;;;;;;2.60;0.68;;;22.60;99.90;;;;;;5101116;28;20533;-67
2021/08/25 10:14:07;;;;;;;1.80;0.22;;;22.60;99.90;;;;;;5104033;27;20031;-67
2021/08/25 10:16:48;;;;;;;1.25;0.63;;;22.80;99.90;;;;;;5100326;28;20054;-67
2021/08/25 10:19:39;;;;;;;2.13;0.30;;;22.90;99.90;;;;;;5102065;28;20046;-67
2021/08/25 10:22:16;;;;;;;0.85;0.38;;;23.10;99.90;;;;;;5101520;28;20036;-67
2021/08/25 10:24:54;;;;;;;0.68;0.20;;;23.30;99.90;;;;;;5104387;27;20039;-67
2021/08/25 10:27:21;;;;;;;1.70;0.30;;;23.50;99.90;;;;;;5129985;27;20508;-67
2021/08/25 10:30:02;;;;;;;0.88;0.30;;;23.50;99.20;;;;;;5101418;28;20044;-67
2021/08/25 10:32:37;;;;;;;2.22;0.30;;;23.80;97.30;;;;;;5100872;27;20044;-67
2021/08/25 10:35:18;;;;;;;;;;;23.80;95.40;;;;;;5101550;28;20042;-67
2021/08/25 10:37:45;;;;;;;1.15;0.20;;;23.60;96.80;;;;;;5102849;28;19924;-67
2021/08/25 10:40:12;;;;;;;1.52;0.30;;;23.20;97.40;;;;;;5102808;28;20035;-67
2021/08/25 10:42:45;;;;;;;0.80;0.20;;;22.90;99.10;;;;;;5102868;28;20156;-67
2021/08/25 10:45:11;;;;;;;0.45;0.20;;;22.70;99.90;;;;;;5102804;28;20997;-67
2021/08/25 10:47:58;;;;;;;2.38;0.30;;;22.50;99.90;;;;;;5104092;28;20074;-67
2021/08/25 10:50:43;;;;;;;2.60;0.50;;;22.40;99.90;;;;;;5104254;28;20046;-67
2021/08/25 10:53:31;;;;;;;1.20;0.40;;;22.30;99.90;;;;;;5105244;27;20153;-67
2021/08/25 10:56:41;;;;;;;0.95;0.35;;;22.30;99.90;;;;;;5102399;28;20046;-67
2021/08/25 10:59:09;;;;;;;0.60;0.20;;;22.20;99.90;;;;;;5062243;28;20489;-67
2021/08/25 11:01:47;;;;;;;2.15;0.50;;;22.20;99.90;;;;;;5089650;28;20055;-67
2021/08/25 11:04:16;;;;;;;0.50;0.20;;;22.40;99.90;;;;;;5104392;27;20377;-69
2021/08/25 11:06:56;;;;;;;0.93;0.20;;;22.60;99.90;;;;;;5102439;28;20036;-69
2021/08/25 11:09:30;;;;;;;2.08;0.20;;;22.60;99.90;;;;;;5098381;27;20115;-67
2021/08/25 11:12:00;;;;;;;2.53;0.20;;;22.40;99.90;;;;;;5104242;27;20028;-67
2021/08/25 11:14:38;;;;;;;1.60;0.50;;;22.20;99.90;;;;;;5103022;28;20040;-67
2021/08/25 11:17:15;;;;;;;3.22;0.20;;;22.10;99.90;;;;;;5102574;27;20980;-67
2021/08/25 11:19:57;;;;;;;0.93;0.30;;;21.90;99.90;;;;;;5102569;28;20381;-67
2021/08/25 11:22:32;;;;;;;0.60;0.30;;;21.80;99.90;;;;;;5100565;28;20036;-67
2021/08/25 11:25:01;;;;;;;2.58;0.20;;;21.60;99.90;;;;;;5103399;28;20485;-67
2021/08/25 11:27:35;;;;;;;1.02;0.20;;;21.30;99.90;;;;;;5103950;28;20035;-67
2021/08/25 11:30:16;;;;;;;1.08;0.20;;;21.10;99.90;;;;;;5096972;27;20225;-67
2021/08/25 11:32:43;;;;;;;2.95;0.30;;;21.10;99.90;;;;;;5099130;28;20105;-67
2021/08/25 11:35:10;;;;;;;0.98;0.20;;;21.00;99.90;;;;;;5127434;27;20047;-67
2021/08/25 11:37:36;;;;;;;2.50;0.30;;;20.90;99.90;;;;;;5101505;28;20036;-67
2021/08/25 11:40:05;;;;;;;0.38;0.28;;;20.90;99.90;;;;;;5102425;28;20040;-67
2021/08/25 11:42:36;;;;;;;0.90;0.20;;;20.80;99.90;;;;;;5100701;28;20023;-67
2021/08/25 11:45:27;;;;;;;7.85;1.45;;;20.80;99.90;;;;;;5101280;28;20390;-67
2021/08/25 11:47:56;;;;;;;1.08;0.28;;;20.70;99.90;;;;;;5105406;28;20047;-67
2021/08/25 11:50:27;;;;;;;0.13;0.13;;;20.70;99.90;;;;;;5133154;27;20052;-67
2021/08/25 11:52:53;;;;;;;0.95;0.30;;;20.80;99.90;;;;;;5099824;28;20044;-67
2021/08/25 11:55:20;;;;;;;1.27;0.22;;;20.90;99.90;;;;;;5097232;28;20027;-67
2021/08/25 11:57:56;;;;;;;0.57;0.25;;;20.90;99.90;;;;;;5101024;28;20534;-67
2021/08/25 12:00:41;;;;;;;0.50;0.20;;;21.00;99.90;;;;;;5103322;28;20040;-67
2021/08/25 12:03:08;;;;;;;0.55;0.20;;;20.90;99.90;;;;;;5101378;28;20055;-67
2021/08/25 12:05:39;;;;;;;1.50;0.50;;;20.80;99.90;;;;;;5101823;28;20440;-67
2021/08/25 12:08:11;;;;;;;1.17;0.22;;;20.70;99.90;;;;;;5104753;28;20031;-67
2021/08/25 12:11:04;;;;;;;1.15;0.45;;;20.80;99.90;;;;;;5099257;28;20383;-66
2021/08/25 12:13:35;;;;;;;1.25;0.20;;;20.80;99.90;;;;;;5098380;28;20075;-66
2021/08/25 12:16:11;;;;;;;1.50;0.30;;;20.90;99.90;;;;;;5101321;28;20035;-67
2021/08/25 12:18:47;;;;;;;;;;;20.90;99.90;;;;;;5100562;28;20036;-67
2021/08/25 12:21:12;;;;;;;0.98;0.45;;;20.80;99.90;;;;;;5097199;28;19928;-67
2021/08/25 12:24:13;;;;;;;1.30;0.30;;;20.70;99.90;;;;;;5101469;28;20508;-67
2021/08/25 12:26:54;;;;;;;0.77;0.38;;;20.60;99.90;;;;;;5097366;28;20177;-66
2021/08/25 12:29:29;;;;;;;1.13;0.22;;;20.50;99.90;;;;;;5101007;28;20071;-67
2021/08/25 12:31:57;;;;;;;1.25;0.38;;;20.40;99.90;;;;;;5102198;28;20047;-66
2021/08/25 12:34:23;;;;;;;0.98;0.30;;;20.40;99.90;;;;;;5104790;28;20044;-67
2021/08/25 12:36:52;;;;;;;1.00;0.28;;;20.40;99.90;;;;;;5105449;28;20035;-67
2021/08/25 12:39:24;;;;;;;3.67;0.50;;;20.40;99.90;;;;;;5100782;28;20044;-67
2021/08/25 12:41:51;;;;;;;0.70;0.38;;;20.40;99.90;;;;;;5103749;28;20074;-66
2021/08/25 12:44:18;;;;;;;1.60;0.40;;;20.40;99.90;;;;;;5100386;28;20051;-67
2021/08/25 12:46:55;;;;;;;1.15;0.25;;;20.40;99.90;;;;;;5101812;28;20031;-66